sensor_id;sensor_type;location;lat;lon;timestamp;P1;durP1;ratioP1;P2;durP2;ratioP2
16804;SDS011;8520;50.102;20.010;2023-07-29T00:00:09;72.18;;;68.57;;
16804;SDS011;8520;50.102;20.010;2023-07-29T00:02:40;71.75;;;68.25;;
16804;SDS011;8520;50.102;20.010;2023-07-29T00:05:08;71.10;;;67.47;;
16804;SDS011;8520;50.102;20.010;2023-07-29T00:07:36;71.30;;;67.70;;
16804;SDS011;8520;50.102;20.010;2023-07-29T00:10:04;71.03;;;67.45;;
16804;SDS011;8520;50.102;20.010;2023-07-29T00:12:32;70.95;;;67.38;;
16804;SDS011;8520;50.102;20.010;2023-07-29T00:15:01;71.25;;;67.68;;
16804;SDS011;8520;50.102;20.010;2023-07-29T00:17:29;71.45;;;67.95;;
16804;SDS011;8520;50.102;20.010;2023-07-29T00:19:57;71.60;;;68.10;;
16804;SDS011;8520;50.102;20.010;2023-07-29T00:22:25;72.43;;;68.60;;
16804;SDS011;8520;50.102;20.010;2023-07-29T00:24:53;72.32;;;68.47;;
16804;SDS011;8520;50.102;20.010;2023-07-29T00:27:21;72.15;;;68.55;;
16804;SDS011;8520;50.102;20.010;2023-07-29T00:29:49;72.82;;;69.00;;
16804;SDS011;8520;50.102;20.010;2023-07-29T00:32:18;73.40;;;69.70;;
16804;SDS011;8520;50.102;20.010;2023-07-29T00:34:46;73.53;;;69.82;;
16804;SDS011;8520;50.102;20.010;2023-07-29T00:37:14;73.90;;;70.18;;
16804;SDS011;8520;50.102;20.010;2023-07-29T00:39:44;73.95;;;70.32;;
16804;SDS011;8520;50.102;20.010;2023-07-29T00:42:12;74.03;;;70.43;;
16804;SDS011;8520;50.102;20.010;2023-07-29T00:44:41;75.35;;;71.45;;
16804;SDS011;8520;50.102;20.010;2023-07-29T00:47:09;74.60;;;70.97;;
16804;SDS011;8520;50.102;20.010;2023-07-29T00:49:38;76.43;;;72.63;;
16804;SDS011;8520;50.102;20.010;2023-07-29T00:52:06;76.45;;;72.75;;
16804;SDS011;8520;50.102;20.010;2023-07-29T00:54:34;77.93;;;74.05;;
16804;SDS011;8520;50.102;20.010;2023-07-29T00:57:02;78.85;;;74.90;;
16804;SDS011;8520;50.102;20.010;2023-07-29T00:59:30;81.45;;;77.35;;
16804;SDS011;8520;50.102;20.010;2023-07-29T01:01:58;82.45;;;78.25;;
16804;SDS011;8520;50.102;20.010;2023-07-29T01:04:26;83.22;;;79.03;;
16804;SDS011;8520;50.102;20.010;2023-07-29T01:06:58;84.15;;;79.75;;
16804;SDS011;8520;50.102;20.010;2023-07-29T01:09:29;85.05;;;80.72;;
16804;SDS011;8520;50.102;20.010;2023-07-29T01:12:01;86.35;;;81.68;;
16804;SDS011;8520;50.102;20.010;2023-07-29T01:14:34;86.35;;;81.75;;
16804;SDS011;8520;50.102;20.010;2023-07-29T01:17:03;84.63;;;80.25;;
16804;SDS011;8520;50.102;20.010;2023-07-29T01:19:37;85.55;;;81.05;;
16804;SDS011;8520;50.102;20.010;2023-07-29T01:22:09;85.82;;;81.20;;
16804;SDS011;8520;50.102;20.010;2023-07-29T01:24:39;87.00;;;82.40;;
16804;SDS011;8520;50.102;20.010;2023-07-29T01:27:07;87.68;;;82.97;;
16804;SDS011;8520;50.102;20.010;2023-07-29T01:29:35;86.30;;;81.80;;
16804;SDS011;8520;50.102;20.010;2023-07-29T01:32:04;86.97;;;82.35;;
16804;SDS011;8520;50.102;20.010;2023-07-29T01:34:35;85.85;;;81.25;;
16804;SDS011;8520;50.102;20.010;2023-07-29T01:37:06;84.57;;;80.07;;
16804;SDS011;8520;50.102;20.010;2023-07-29T01:39:37;83.38;;;78.93;;
16804;SDS011;8520;50.102;20.010;2023-07-29T01:42:06;81.22;;;77.03;;
16804;SDS011;8520;50.102;20.010;2023-07-29T01:44:34;81.03;;;76.82;;
16804;SDS011;8520;50.102;20.010;2023-07-29T01:47:03;79.15;;;75.03;;
16804;SDS011;8520;50.102;20.010;2023-07-29T01:49:33;78.47;;;74.25;;
16804;SDS011;8520;50.102;20.010;2023-07-29T01:52:01;78.30;;;74.30;;
16804;SDS011;8520;50.102;20.010;2023-07-29T01:54:29;78.20;;;74.05;;
16804;SDS011;8520;50.102;20.010;2023-07-29T01:56:57;78.85;;;74.75;;
16804;SDS011;8520;50.102;20.010;2023-07-29T01:59:27;79.40;;;75.40;;
16804;SDS011;8520;50.102;20.010;2023-07-29T02:01:54;80.30;;;76.30;;
16804;SDS011;8520;50.102;20.010;2023-07-29T02:04:22;80.80;;;76.60;;
16804;SDS011;8520;50.102;20.010;2023-07-29T02:06:50;81.68;;;77.50;;
16804;SDS011;8520;50.102;20.010;2023-07-29T02:09:18;83.30;;;78.90;;
16804;SDS011;8520;50.102;20.010;2023-07-29T02:11:46;84.60;;;80.07;;
16804;SDS011;8520;50.102;20.010;2023-07-29T02:14:14;83.63;;;79.32;;
16804;SDS011;8520;50.102;20.010;2023-07-29T02:16:43;84.43;;;80.03;;
16804;SDS011;8520;50.102;20.010;2023-07-29T02:19:11;83.70;;;79.40;;
16804;SDS011;8520;50.102;20.010;2023-07-29T02:21:39;83.15;;;78.85;;
16804;SDS011;8520;50.102;20.010;2023-07-29T02:24:07;82.38;;;78.13;;
16804;SDS011;8520;50.102;20.010;2023-07-29T02:26:35;81.50;;;77.40;;
16804;SDS011;8520;50.102;20.010;2023-07-29T02:29:04;81.35;;;77.22;;
16804;SDS011;8520;50.102;20.010;2023-07-29T02:31:32;81.10;;;76.90;;
16804;SDS011;8520;50.102;20.010;2023-07-29T02:34:02;81.55;;;77.43;;
16804;SDS011;8520;50.102;20.010;2023-07-29T02:36:30;82.85;;;78.30;;
16804;SDS011;8520;50.102;20.010;2023-07-29T02:38:58;83.65;;;79.20;;
16804;SDS011;8520;50.102;20.010;2023-07-29T02:41:26;82.10;;;77.90;;
16804;SDS011;8520;50.102;20.010;2023-07-29T02:43:54;83.07;;;78.78;;
16804;SDS011;8520;50.102;20.010;2023-07-29T02:46:22;82.25;;;78.03;;
16804;SDS011;8520;50.102;20.010;2023-07-29T02:48:50;82.50;;;78.28;;
16804;SDS011;8520;50.102;20.010;2023-07-29T02:51:19;81.47;;;77.38;;
16804;SDS011;8520;50.102;20.010;2023-07-29T02:53:47;81.30;;;77.20;;
16804;SDS011;8520;50.102;20.010;2023-07-29T02:56:15;80.47;;;76.47;;
16804;SDS011;8520;50.102;20.010;2023-07-29T02:58:43;80.07;;;76.03;;
16804;SDS011;8520;50.102;20.010;2023-07-29T03:01:11;79.28;;;75.28;;
16804;SDS011;8520;50.102;20.010;2023-07-29T03:03:39;80.00;;;75.90;;
16804;SDS011;8520;50.102;20.010;2023-07-29T03:06:09;79.55;;;75.55;;
16804;SDS011;8520;50.102;20.010;2023-07-29T03:08:38;79.70;;;75.63;;
16804;SDS011;8520;50.102;20.010;2023-07-29T03:11:07;78.80;;;74.68;;
16804;SDS011;8520;50.102;20.010;2023-07-29T03:13:35;80.05;;;75.88;;
16804;SDS011;8520;50.102;20.010;2023-07-29T03:16:06;80.47;;;76.05;;
16804;SDS011;8520;50.102;20.010;2023-07-29T03:18:35;79.90;;;75.75;;
16804;SDS011;8520;50.102;20.010;2023-07-29T03:21:03;79.03;;;74.93;;
16804;SDS011;8520;50.102;20.010;2023-07-29T03:23:31;80.20;;;76.00;;
16804;SDS011;8520;50.102;20.010;2023-07-29T03:26:01;79.53;;;75.28;;
16804;SDS011;8520;50.102;20.010;2023-07-29T03:28:32;79.60;;;75.40;;
16804;SDS011;8520;50.102;20.010;2023-07-29T03:31:00;79.82;;;75.60;;
16804;SDS011;8520;50.102;20.010;2023-07-29T03:33:28;78.78;;;74.68;;
16804;SDS011;8520;50.102;20.010;2023-07-29T03:35:56;79.45;;;75.28;;
16804;SDS011;8520;50.102;20.010;2023-07-29T03:38:24;80.45;;;76.35;;
16804;SDS011;8520;50.102;20.010;2023-07-29T03:40:52;80.10;;;75.95;;
16804;SDS011;8520;50.102;20.010;2023-07-29T03:43:22;80.25;;;76.00;;
16804;SDS011;8520;50.102;20.010;2023-07-29T03:45:54;80.57;;;76.47;;
16804;SDS011;8520;50.102;20.010;2023-07-29T03:48:22;80.85;;;76.55;;
16804;SDS011;8520;50.102;20.010;2023-07-29T03:50:50;81.10;;;76.70;;
16804;SDS011;8520;50.102;20.010;2023-07-29T03:53:18;79.95;;;75.85;;
16804;SDS011;8520;50.102;20.010;2023-07-29T03:55:46;80.82;;;76.65;;
16804;SDS011;8520;50.102;20.010;2023-07-29T03:58:13;81.47;;;77.28;;
16804;SDS011;8520;50.102;20.010;2023-07-29T04:00:43;80.75;;;76.60;;
16804;SDS011;8520;50.102;20.010;2023-07-29T04:03:11;80.00;;;75.90;;
16804;SDS011;8520;50.102;20.010;2023-07-29T04:05:39;80.40;;;76.18;;
16804;SDS011;8520;50.102;20.010;2023-07-29T04:08:07;80.05;;;75.85;;
16804;SDS011;8520;50.102;20.010;2023-07-29T04:10:35;78.60;;;74.50;;
16804;SDS011;8520;50.102;20.010;2023-07-29T04:13:04;79.55;;;75.47;;
16804;SDS011;8520;50.102;20.010;2023-07-29T04:15:32;78.38;;;74.20;;
16804;SDS011;8520;50.102;20.010;2023-07-29T04:18:01;77.10;;;73.03;;
16804;SDS011;8520;50.102;20.010;2023-07-29T04:20:32;76.53;;;72.38;;
16804;SDS011;8520;50.102;20.010;2023-07-29T04:23:00;76.30;;;72.47;;
16804;SDS011;8520;50.102;20.010;2023-07-29T04:25:28;75.82;;;71.95;;
16804;SDS011;8520;50.102;20.010;2023-07-29T04:27:56;75.78;;;71.97;;
16804;SDS011;8520;50.102;20.010;2023-07-29T04:30:24;74.32;;;70.43;;
16804;SDS011;8520;50.102;20.010;2023-07-29T04:32:52;74.47;;;70.65;;
16804;SDS011;8520;50.102;20.010;2023-07-29T04:35:22;73.65;;;69.97;;
16804;SDS011;8520;50.102;20.010;2023-07-29T04:37:50;71.88;;;68.30;;
16804;SDS011;8520;50.102;20.010;2023-07-29T04:40:18;71.80;;;68.15;;
16804;SDS011;8520;50.102;20.010;2023-07-29T04:42:46;70.53;;;67.13;;
16804;SDS011;8520;50.102;20.010;2023-07-29T04:45:14;71.43;;;67.82;;
16804;SDS011;8520;50.102;20.010;2023-07-29T04:47:42;71.13;;;67.32;;
16804;SDS011;8520;50.102;20.010;2023-07-29T04:50:10;71.60;;;67.90;;
16804;SDS011;8520;50.102;20.010;2023-07-29T04:52:41;72.00;;;68.07;;
16804;SDS011;8520;50.102;20.010;2023-07-29T04:55:09;73.10;;;69.40;;
16804;SDS011;8520;50.102;20.010;2023-07-29T04:57:37;73.20;;;69.43;;
16804;SDS011;8520;50.102;20.010;2023-07-29T05:00:05;71.55;;;67.75;;
16804;SDS011;8520;50.102;20.010;2023-07-29T05:02:33;70.53;;;66.95;;
16804;SDS011;8520;50.102;20.010;2023-07-29T05:05:02;70.03;;;66.53;;
16804;SDS011;8520;50.102;20.010;2023-07-29T05:07:30;70.07;;;66.57;;
16804;SDS011;8520;50.102;20.010;2023-07-29T05:09:59;69.32;;;65.93;;
16804;SDS011;8520;50.102;20.010;2023-07-29T05:12:27;69.15;;;65.53;;
16804;SDS011;8520;50.102;20.010;2023-07-29T05:14:56;70.50;;;67.00;;
16804;SDS011;8520;50.102;20.010;2023-07-29T05:17:23;68.57;;;65.05;;
16804;SDS011;8520;50.102;20.010;2023-07-29T05:19:53;68.20;;;64.65;;
16804;SDS011;8520;50.102;20.010;2023-07-29T05:22:21;67.13;;;63.40;;
16804;SDS011;8520;50.102;20.010;2023-07-29T05:24:49;66.65;;;62.90;;
16804;SDS011;8520;50.102;20.010;2023-07-29T05:27:18;62.58;;;59.30;;
16804;SDS011;8520;50.102;20.010;2023-07-29T05:29:46;62.28;;;58.92;;
16804;SDS011;8520;50.102;20.010;2023-07-29T05:32:14;61.67;;;58.47;;
16804;SDS011;8520;50.102;20.010;2023-07-29T05:34:42;58.80;;;55.85;;
16804;SDS011;8520;50.102;20.010;2023-07-29T05:37:10;55.75;;;53.00;;
16804;SDS011;8520;50.102;20.010;2023-07-29T05:39:38;53.45;;;50.72;;
16804;SDS011;8520;50.102;20.010;2023-07-29T05:42:06;51.05;;;48.35;;
16804;SDS011;8520;50.102;20.010;2023-07-29T05:44:36;49.20;;;46.88;;
16804;SDS011;8520;50.102;20.010;2023-07-29T05:47:05;50.22;;;47.67;;
16804;SDS011;8520;50.102;20.010;2023-07-29T05:49:33;49.38;;;46.97;;
16804;SDS011;8520;50.102;20.010;2023-07-29T05:52:01;49.38;;;46.38;;
16804;SDS011;8520;50.102;20.010;2023-07-29T05:54:29;48.72;;;46.22;;
16804;SDS011;8520;50.102;20.010;2023-07-29T05:56:57;48.70;;;46.15;;
16804;SDS011;8520;50.102;20.010;2023-07-29T05:59:25;49.38;;;46.75;;
16804;SDS011;8520;50.102;20.010;2023-07-29T06:01:57;46.08;;;43.58;;
16804;SDS011;8520;50.102;20.010;2023-07-29T06:04:25;44.30;;;42.05;;
16804;SDS011;8520;50.102;20.010;2023-07-29T06:06:53;42.63;;;40.33;;
16804;SDS011;8520;50.102;20.010;2023-07-29T06:09:22;41.42;;;39.63;;
16804;SDS011;8520;50.102;20.010;2023-07-29T06:11:50;39.88;;;38.03;;
16804;SDS011;8520;50.102;20.010;2023-07-29T06:14:21;39.72;;;37.92;;
16804;SDS011;8520;50.102;20.010;2023-07-29T06:16:49;40.03;;;37.95;;
16804;SDS011;8520;50.102;20.010;2023-07-29T06:19:19;39.30;;;37.40;;
16804;SDS011;8520;50.102;20.010;2023-07-29T06:21:47;36.38;;;34.78;;
16804;SDS011;8520;50.102;20.010;2023-07-29T06:24:16;34.22;;;32.53;;
16804;SDS011;8520;50.102;20.010;2023-07-29T06:26:44;33.78;;;32.17;;
16804;SDS011;8520;50.102;20.010;2023-07-29T06:29:12;33.33;;;31.45;;
16804;SDS011;8520;50.102;20.010;2023-07-29T06:31:39;29.65;;;28.35;;
16804;SDS011;8520;50.102;20.010;2023-07-29T06:34:07;27.88;;;26.58;;
16804;SDS011;8520;50.102;20.010;2023-07-29T06:36:37;26.48;;;25.27;;
16804;SDS011;8520;50.102;20.010;2023-07-29T06:39:05;24.85;;;23.83;;
16804;SDS011;8520;50.102;20.010;2023-07-29T06:41:33;23.40;;;22.35;;
16804;SDS011;8520;50.102;20.010;2023-07-29T06:44:03;22.90;;;21.80;;
16804;SDS011;8520;50.102;20.010;2023-07-29T06:46:31;22.65;;;21.50;;
16804;SDS011;8520;50.102;20.010;2023-07-29T06:48:59;20.75;;;19.83;;
16804;SDS011;8520;50.102;20.010;2023-07-29T06:51:27;20.98;;;19.98;;
16804;SDS011;8520;50.102;20.010;2023-07-29T06:53:57;20.73;;;19.63;;
16804;SDS011;8520;50.102;20.010;2023-07-29T06:56:25;21.10;;;20.20;;
16804;SDS011;8520;50.102;20.010;2023-07-29T06:58:53;21.05;;;20.15;;
16804;SDS011;8520;50.102;20.010;2023-07-29T07:01:21;19.33;;;18.25;;
16804;SDS011;8520;50.102;20.010;2023-07-29T07:03:49;19.90;;;18.92;;
16804;SDS011;8520;50.102;20.010;2023-07-29T07:06:21;18.23;;;17.42;;
16804;SDS011;8520;50.102;20.010;2023-07-29T07:08:51;19.38;;;18.38;;
16804;SDS011;8520;50.102;20.010;2023-07-29T07:11:20;18.38;;;17.48;;
16804;SDS011;8520;50.102;20.010;2023-07-29T07:13:48;17.48;;;16.48;;
16804;SDS011;8520;50.102;20.010;2023-07-29T07:16:16;18.15;;;17.35;;
16804;SDS011;8520;50.102;20.010;2023-07-29T07:18:44;18.10;;;17.30;;
16804;SDS011;8520;50.102;20.010;2023-07-29T07:21:12;17.83;;;17.02;;
16804;SDS011;8520;50.102;20.010;2023-07-29T07:23:40;17.75;;;16.98;;
16804;SDS011;8520;50.102;20.010;2023-07-29T07:26:08;18.83;;;18.02;;
16804;SDS011;8520;50.102;20.010;2023-07-29T07:28:37;17.75;;;16.77;;
16804;SDS011;8520;50.102;20.010;2023-07-29T07:31:05;18.35;;;17.45;;
16804;SDS011;8520;50.102;20.010;2023-07-29T07:33:33;18.23;;;17.33;;
16804;SDS011;8520;50.102;20.010;2023-07-29T07:36:01;19.17;;;18.20;;
16804;SDS011;8520;50.102;20.010;2023-07-29T07:38:29;18.58;;;17.67;;
16804;SDS011;8520;50.102;20.010;2023-07-29T07:40:57;17.00;;;16.20;;
16804;SDS011;8520;50.102;20.010;2023-07-29T07:43:25;16.40;;;15.60;;
16804;SDS011;8520;50.102;20.010;2023-07-29T07:45:58;16.40;;;15.32;;
16804;SDS011;8520;50.102;20.010;2023-07-29T07:48:27;15.57;;;14.77;;
16804;SDS011;8520;50.102;20.010;2023-07-29T07:50:55;13.73;;;13.13;;
16804;SDS011;8520;50.102;20.010;2023-07-29T07:53:23;13.23;;;12.50;;
16804;SDS011;8520;50.102;20.010;2023-07-29T07:55:52;13.50;;;12.80;;
16804;SDS011;8520;50.102;20.010;2023-07-29T07:58:20;12.43;;;11.85;;
16804;SDS011;8520;50.102;20.010;2023-07-29T08:00:48;11.25;;;10.75;;
16804;SDS011;8520;50.102;20.010;2023-07-29T08:03:17;11.32;;;10.82;;
16804;SDS011;8520;50.102;20.010;2023-07-29T08:05:45;11.70;;;11.10;;
16804;SDS011;8520;50.102;20.010;2023-07-29T08:08:13;11.80;;;11.00;;
16804;SDS011;8520;50.102;20.010;2023-07-29T08:10:41;11.40;;;10.90;;
16804;SDS011;8520;50.102;20.010;2023-07-29T08:13:09;9.95;;;9.45;;
16804;SDS011;8520;50.102;20.010;2023-07-29T08:15:37;8.70;;;8.15;;
16804;SDS011;8520;50.102;20.010;2023-07-29T08:18:05;8.63;;;8.23;;
16804;SDS011;8520;50.102;20.010;2023-07-29T08:20:34;8.88;;;8.35;;
16804;SDS011;8520;50.102;20.010;2023-07-29T08:23:02;7.97;;;7.40;;
16804;SDS011;8520;50.102;20.010;2023-07-29T08:25:30;7.68;;;7.28;;
16804;SDS011;8520;50.102;20.010;2023-07-29T08:27:58;7.07;;;6.45;;
16804;SDS011;8520;50.102;20.010;2023-07-29T08:30:26;6.53;;;6.13;;
16804;SDS011;8520;50.102;20.010;2023-07-29T08:32:54;6.88;;;6.47;;
16804;SDS011;8520;50.102;20.010;2023-07-29T08:35:22;5.85;;;5.60;;
16804;SDS011;8520;50.102;20.010;2023-07-29T08:37:51;5.53;;;5.32;;
16804;SDS011;8520;50.102;20.010;2023-07-29T08:40:22;4.68;;;4.47;;
16804;SDS011;8520;50.102;20.010;2023-07-29T08:42:53;5.05;;;4.85;;
16804;SDS011;8520;50.102;20.010;2023-07-29T08:45:21;5.10;;;4.82;;
16804;SDS011;8520;50.102;20.010;2023-07-29T08:47:50;4.43;;;4.13;;
16804;SDS011;8520;50.102;20.010;2023-07-29T08:50:22;4.78;;;4.38;;
16804;SDS011;8520;50.102;20.010;2023-07-29T08:52:52;4.80;;;4.60;;
16804;SDS011;8520;50.102;20.010;2023-07-29T08:55:20;4.40;;;4.20;;
16804;SDS011;8520;50.102;20.010;2023-07-29T08:57:48;4.40;;;4.20;;
16804;SDS011;8520;50.102;20.010;2023-07-29T09:00:16;4.40;;;4.20;;
16804;SDS011;8520;50.102;20.010;2023-07-29T09:02:47;3.97;;;3.78;;
16804;SDS011;8520;50.102;20.010;2023-07-29T09:05:15;4.30;;;3.95;;
16804;SDS011;8520;50.102;20.010;2023-07-29T09:07:43;4.18;;;3.97;;
16804;SDS011;8520;50.102;20.010;2023-07-29T09:10:14;4.75;;;4.00;;
16804;SDS011;8520;50.102;20.010;2023-07-29T09:12:42;4.40;;;4.20;;
16804;SDS011;8520;50.102;20.010;2023-07-29T09:15:10;4.20;;;3.90;;
16804;SDS011;8520;50.102;20.010;2023-07-29T09:17:38;4.57;;;4.38;;
16804;SDS011;8520;50.102;20.010;2023-07-29T09:20:09;4.00;;;3.80;;
16804;SDS011;8520;50.102;20.010;2023-07-29T09:22:37;4.22;;;3.92;;
16804;SDS011;8520;50.102;20.010;2023-07-29T09:25:05;4.85;;;3.50;;
16804;SDS011;8520;50.102;20.010;2023-07-29T09:27:34;4.03;;;3.63;;
16804;SDS011;8520;50.102;20.010;2023-07-29T09:30:06;3.38;;;3.28;;
16804;SDS011;8520;50.102;20.010;2023-07-29T09:32:42;3.70;;;3.50;;
16804;SDS011;8520;50.102;20.010;2023-07-29T09:35:11;4.13;;;3.92;;
16804;SDS011;8520;50.102;20.010;2023-07-29T09:37:39;3.67;;;3.47;;
16804;SDS011;8520;50.102;20.010;2023-07-29T09:40:07;3.58;;;3.33;;
16804;SDS011;8520;50.102;20.010;2023-07-29T09:42:43;3.97;;;3.78;;
16804;SDS011;8520;50.102;20.010;2023-07-29T09:45:21;4.15;;;3.85;;
16804;SDS011;8520;50.102;20.010;2023-07-29T09:47:49;3.78;;;3.67;;
16804;SDS011;8520;50.102;20.010;2023-07-29T09:50:17;3.22;;;3.13;;
16804;SDS011;8520;50.102;20.010;2023-07-29T09:52:45;4.00;;;3.80;;
16804;SDS011;8520;50.102;20.010;2023-07-29T09:55:16;4.07;;;3.75;;
16804;SDS011;8520;50.102;20.010;2023-07-29T09:57:46;4.28;;;3.97;;
16804;SDS011;8520;50.102;20.010;2023-07-29T10:00:14;3.90;;;3.70;;
16804;SDS011;8520;50.102;20.010;2023-07-29T10:02:43;4.50;;;4.30;;
16804;SDS011;8520;50.102;20.010;2023-07-29T10:05:11;4.00;;;3.70;;
16804;SDS011;8520;50.102;20.010;2023-07-29T10:07:39;4.40;;;4.20;;
16804;SDS011;8520;50.102;20.010;2023-07-29T10:10:08;3.40;;;3.30;;
16804;SDS011;8520;50.102;20.010;2023-07-29T10:12:36;4.10;;;3.80;;
16804;SDS011;8520;50.102;20.010;2023-07-29T10:15:06;4.45;;;3.60;;
16804;SDS011;8520;50.102;20.010;2023-07-29T10:17:34;4.57;;;4.28;;
16804;SDS011;8520;50.102;20.010;2023-07-29T10:20:03;3.85;;;3.55;;
16804;SDS011;8520;50.102;20.010;2023-07-29T10:22:33;4.25;;;4.00;;
16804;SDS011;8520;50.102;20.010;2023-07-29T10:25:02;4.47;;;4.18;;
16804;SDS011;8520;50.102;20.010;2023-07-29T10:27:33;4.13;;;3.92;;
16804;SDS011;8520;50.102;20.010;2023-07-29T10:30:02;4.75;;;4.43;;
16804;SDS011;8520;50.102;20.010;2023-07-29T10:32:32;4.88;;;4.57;;
16804;SDS011;8520;50.102;20.010;2023-07-29T10:35:00;3.80;;;3.53;;
16804;SDS011;8520;50.102;20.010;2023-07-29T10:37:28;4.20;;;4.00;;
16804;SDS011;8520;50.102;20.010;2023-07-29T10:39:56;4.20;;;3.90;;
16804;SDS011;8520;50.102;20.010;2023-07-29T10:42:24;3.80;;;3.50;;
16804;SDS011;8520;50.102;20.010;2023-07-29T10:44:52;4.40;;;4.00;;
16804;SDS011;8520;50.102;20.010;2023-07-29T10:47:23;4.45;;;4.10;;
16804;SDS011;8520;50.102;20.010;2023-07-29T10:49:53;3.55;;;3.22;;
16804;SDS011;8520;50.102;20.010;2023-07-29T10:52:28;3.40;;;3.20;;
16804;SDS011;8520;50.102;20.010;2023-07-29T10:54:56;3.17;;;3.08;;
16804;SDS011;8520;50.102;20.010;2023-07-29T10:57:30;3.10;;;2.90;;
16804;SDS011;8520;50.102;20.010;2023-07-29T10:59:58;4.18;;;3.88;;
16804;SDS011;8520;50.102;20.010;2023-07-29T11:02:30;3.15;;;2.95;;
16804;SDS011;8520;50.102;20.010;2023-07-29T11:05:04;3.17;;;3.03;;
16804;SDS011;8520;50.102;20.010;2023-07-29T11:07:42;3.30;;;3.20;;
16804;SDS011;8520;50.102;20.010;2023-07-29T11:10:11;4.30;;;3.97;;
16804;SDS011;8520;50.102;20.010;2023-07-29T11:12:40;3.95;;;3.65;;
16804;SDS011;8520;50.102;20.010;2023-07-29T11:17:55;4.93;;;4.65;;
16804;SDS011;8520;50.102;20.010;2023-07-29T11:20:25;3.67;;;3.58;;
16804;SDS011;8520;50.102;20.010;2023-07-29T11:22:53;4.50;;;4.20;;
16804;SDS011;8520;50.102;20.010;2023-07-29T11:25:23;5.13;;;4.93;;
16804;SDS011;8520;50.102;20.010;2023-07-29T11:27:52;7.53;;;4.10;;
16804;SDS011;8520;50.102;20.010;2023-07-29T11:30:20;4.00;;;3.80;;
16804;SDS011;8520;50.102;20.010;2023-07-29T11:32:49;4.38;;;3.97;;
16804;SDS011;8520;50.102;20.010;2023-07-29T11:35:18;4.53;;;4.32;;
16804;SDS011;8520;50.102;20.010;2023-07-29T11:37:47;5.13;;;3.60;;
16804;SDS011;8520;50.102;20.010;2023-07-29T11:40:16;3.28;;;3.17;;
16804;SDS011;8520;50.102;20.010;2023-07-29T11:42:44;3.22;;;3.13;;
16804;SDS011;8520;50.102;20.010;2023-07-29T11:45:13;3.70;;;3.50;;
16804;SDS011;8520;50.102;20.010;2023-07-29T11:47:44;3.90;;;3.70;;
16804;SDS011;8520;50.102;20.010;2023-07-29T11:50:12;4.72;;;4.20;;
16804;SDS011;8520;50.102;20.010;2023-07-29T11:52:41;4.10;;;3.90;;
16804;SDS011;8520;50.102;20.010;2023-07-29T11:55:11;4.03;;;3.83;;
16804;SDS011;8520;50.102;20.010;2023-07-29T11:57:39;4.20;;;4.00;;
16804;SDS011;8520;50.102;20.010;2023-07-29T12:00:09;4.13;;;3.92;;
16804;SDS011;8520;50.102;20.010;2023-07-29T12:02:39;4.70;;;4.50;;
16804;SDS011;8520;50.102;20.010;2023-07-29T12:05:08;5.05;;;4.75;;
16804;SDS011;8520;50.102;20.010;2023-07-29T12:07:37;4.60;;;4.40;;
16804;SDS011;8520;50.102;20.010;2023-07-29T12:10:06;4.85;;;4.65;;
16804;SDS011;8520;50.102;20.010;2023-07-29T12:12:38;3.97;;;3.78;;
16804;SDS011;8520;50.102;20.010;2023-07-29T12:15:08;5.10;;;4.70;;
16804;SDS011;8520;50.102;20.010;2023-07-29T12:17:39;5.50;;;4.45;;
16804;SDS011;8520;50.102;20.010;2023-07-29T12:20:08;5.40;;;5.15;;
16804;SDS011;8520;50.102;20.010;2023-07-29T12:22:36;4.93;;;4.53;;
16804;SDS011;8520;50.102;20.010;2023-07-29T12:25:04;6.15;;;5.85;;
16804;SDS011;8520;50.102;20.010;2023-07-29T12:27:33;4.93;;;4.72;;
16804;SDS011;8520;50.102;20.010;2023-07-29T12:30:02;5.25;;;5.05;;
16804;SDS011;8520;50.102;20.010;2023-07-29T12:32:31;4.78;;;4.57;;
16804;SDS011;8520;50.102;20.010;2023-07-29T12:34:58;4.80;;;4.60;;
16804;SDS011;8520;50.102;20.010;2023-07-29T12:37:30;4.30;;;4.10;;
16804;SDS011;8520;50.102;20.010;2023-07-29T12:39:58;4.50;;;4.30;;
16804;SDS011;8520;50.102;20.010;2023-07-29T12:42:26;4.05;;;3.85;;
16804;SDS011;8520;50.102;20.010;2023-07-29T12:44:54;4.70;;;4.40;;
16804;SDS011;8520;50.102;20.010;2023-07-29T12:47:24;4.88;;;4.57;;
16804;SDS011;8520;50.102;20.010;2023-07-29T12:49:51;5.40;;;5.20;;
16804;SDS011;8520;50.102;20.010;2023-07-29T12:52:19;4.90;;;4.60;;
16804;SDS011;8520;50.102;20.010;2023-07-29T12:54:47;5.60;;;5.40;;
16804;SDS011;8520;50.102;20.010;2023-07-29T12:57:15;4.38;;;4.18;;
16804;SDS011;8520;50.102;20.010;2023-07-29T12:59:43;5.13;;;4.88;;
16804;SDS011;8520;50.102;20.010;2023-07-29T13:02:11;5.50;;;5.30;;
16804;SDS011;8520;50.102;20.010;2023-07-29T13:04:40;7.40;;;7.00;;
16804;SDS011;8520;50.102;20.010;2023-07-29T13:07:08;5.85;;;5.63;;
16804;SDS011;8520;50.102;20.010;2023-07-29T13:09:36;6.60;;;6.30;;
16804;SDS011;8520;50.102;20.010;2023-07-29T13:12:04;6.28;;;6.07;;
16804;SDS011;8520;50.102;20.010;2023-07-29T13:14:32;6.70;;;6.30;;
16804;SDS011;8520;50.102;20.010;2023-07-29T13:17:00;6.28;;;6.05;;
16804;SDS011;8520;50.102;20.010;2023-07-29T13:19:29;6.20;;;5.80;;
16804;SDS011;8520;50.102;20.010;2023-07-29T13:21:58;5.63;;;5.43;;
16804;SDS011;8520;50.102;20.010;2023-07-29T13:24:28;6.00;;;5.80;;
16804;SDS011;8520;50.102;20.010;2023-07-29T13:26:56;5.82;;;5.53;;
16804;SDS011;8520;50.102;20.010;2023-07-29T13:29:24;5.82;;;5.63;;
16804;SDS011;8520;50.102;20.010;2023-07-29T13:31:52;5.13;;;4.90;;
16804;SDS011;8520;50.102;20.010;2023-07-29T13:34:20;5.50;;;5.20;;
16804;SDS011;8520;50.102;20.010;2023-07-29T13:36:48;5.03;;;4.82;;
16804;SDS011;8520;50.102;20.010;2023-07-29T13:39:18;5.28;;;4.97;;
16804;SDS011;8520;50.102;20.010;2023-07-29T13:41:45;4.82;;;4.63;;
16804;SDS011;8520;50.102;20.010;2023-07-29T13:44:13;5.30;;;5.00;;
16804;SDS011;8520;50.102;20.010;2023-07-29T13:46:41;4.78;;;4.53;;
16804;SDS011;8520;50.102;20.010;2023-07-29T13:49:09;5.45;;;4.95;;
16804;SDS011;8520;50.102;20.010;2023-07-29T13:51:37;4.70;;;4.40;;
16804;SDS011;8520;50.102;20.010;2023-07-29T13:54:05;6.25;;;5.85;;
16804;SDS011;8520;50.102;20.010;2023-07-29T13:56:35;5.38;;;5.05;;
16804;SDS011;8520;50.102;20.010;2023-07-29T13:59:03;6.72;;;6.22;;
16804;SDS011;8520;50.102;20.010;2023-07-29T14:01:31;4.00;;;3.80;;
16804;SDS011;8520;50.102;20.010;2023-07-29T14:03:59;4.00;;;3.80;;
16804;SDS011;8520;50.102;20.010;2023-07-29T14:06:27;4.10;;;3.90;;
16804;SDS011;8520;50.102;20.010;2023-07-29T14:09:11;4.60;;;4.20;;
16804;SDS011;8520;50.102;20.010;2023-07-29T14:11:40;4.50;;;4.20;;
16804;SDS011;8520;50.102;20.010;2023-07-29T14:14:08;4.43;;;4.13;;
16804;SDS011;8520;50.102;20.010;2023-07-29T14:16:36;4.22;;;4.03;;
16804;SDS011;8520;50.102;20.010;2023-07-29T14:19:04;3.83;;;3.72;;
16804;SDS011;8520;50.102;20.010;2023-07-29T14:21:32;3.38;;;3.15;;
16804;SDS011;8520;50.102;20.010;2023-07-29T14:24:00;3.88;;;3.58;;
16804;SDS011;8520;50.102;20.010;2023-07-29T14:26:28;3.70;;;3.50;;
16804;SDS011;8520;50.102;20.010;2023-07-29T14:28:57;3.95;;;3.70;;
16804;SDS011;8520;50.102;20.010;2023-07-29T14:31:25;3.58;;;3.47;;
16804;SDS011;8520;50.102;20.010;2023-07-29T14:33:53;3.70;;;3.60;;
16804;SDS011;8520;50.102;20.010;2023-07-29T14:36:22;3.80;;;3.70;;
16804;SDS011;8520;50.102;20.010;2023-07-29T14:38:53;4.10;;;3.90;;
16804;SDS011;8520;50.102;20.010;2023-07-29T14:41:21;3.85;;;3.60;;
16804;SDS011;8520;50.102;20.010;2023-07-29T14:43:49;4.53;;;4.25;;